createdAt,value
2023-01-02T00:00:08.439Z,100684.56
2023-01-02T00:05:13.781Z,100688.00
2023-01-02T00:10:15.301Z,100684.16
2023-01-02T00:15:17.061Z,100674.81
2023-01-02T00:20:18.871Z,100676.78
2023-01-02T00:25:20.366Z,100658.88
2023-01-02T00:30:22.199Z,100653.13
2023-01-02T00:35:23.751Z,100669.59
2023-01-02T00:40:25.558Z,100659.69
2023-01-02T00:45:27.702Z,100651.63
2023-01-02T00:50:29.227Z,100649.59
2023-01-02T00:55:30.748Z,100645.28
2023-01-02T01:00:32.472Z,100644.88
2023-01-02T01:05:34.058Z,100646.25
2023-01-02T01:10:37.007Z,100644.84
2023-01-02T01:15:38.995Z,100637.97
2023-01-02T01:20:40.580Z,100638.38
2023-01-02T01:25:42.089Z,100638.66
2023-01-02T01:30:43.600Z,100649.53
2023-01-02T01:35:45.168Z,100651.41
2023-01-02T01:40:46.792Z,100653.63
2023-01-02T01:45:48.384Z,100653.59
2023-01-02T01:50:49.959Z,100651.00
2023-01-02T01:55:55.299Z,100660.91
2023-01-02T02:00:57.328Z,100657.50
2023-01-02T02:06:00.197Z,100653.38
2023-01-02T02:11:02.841Z,100665.94
2023-01-02T02:16:10.447Z,100662.31
2023-01-02T02:21:44.969Z,100665.97
2023-01-02T02:27:08.217Z,100674.06
2023-01-02T02:32:21.989Z,100663.28
2023-01-02T02:37:23.472Z,100662.78
2023-01-02T02:43:00.601Z,100651.38
2023-01-02T02:48:56.410Z,100638.97
2023-01-02T02:54:08.998Z,100650.16
2023-01-02T02:59:11.907Z,100648.97
2023-01-02T03:04:21.472Z,100650.03
2023-01-02T03:09:58.148Z,100638.31
2023-01-02T03:15:21.574Z,100633.44
2023-01-02T03:20:28.622Z,100628.22
2023-01-02T03:25:33.029Z,100629.72
2023-01-02T03:30:38.213Z,100640.97
2023-01-02T03:35:49.658Z,100642.69
2023-01-02T03:41:18.481Z,100645.16
2023-01-02T03:46:34.656Z,100655.66
2023-01-02T03:51:36.214Z,100659.97
2023-01-02T03:56:56.067Z,100653.06
2023-01-02T04:02:04.668Z,100654.03
2023-01-02T04:07:11.874Z,100659.66
2023-01-02T04:12:17.435Z,100649.53
2023-01-02T04:17:22.555Z,100662.13
2023-01-02T04:22:30.224Z,100663.13
2023-01-02T04:27:57.483Z,100664.00
2023-01-02T04:33:06.609Z,100656.72
2023-01-02T04:38:10.455Z,100669.19
2023-01-02T04:43:20.838Z,100677.50
2023-01-02T04:48:22.365Z,100677.72
2023-01-02T04:53:23.850Z,100684.84
2023-01-02T04:58:25.539Z,100679.59
2023-01-02T05:03:27.156Z,100692.34
2023-01-02T05:08:29.396Z,100697.34
2023-01-02T05:13:30.886Z,100699.94
2023-01-02T05:18:32.622Z,100701.66
2023-01-02T05:23:35.009Z,100715.50
2023-01-02T05:28:38.761Z,100724.69
2023-01-02T05:33:40.544Z,100725.47
2023-01-02T05:38:42.047Z,100726.59
2023-01-02T05:43:43.552Z,100729.66
2023-01-02T05:48:45.923Z,100724.69
2023-01-02T05:53:47.795Z,100728.91
2023-01-02T05:58:50.278Z,100721.53
2023-01-02T06:03:57.300Z,100732.84
2023-01-02T06:09:00.001Z,100734.19
2023-01-02T06:14:01.750Z,100737.56
2023-01-02T06:19:04.610Z,100751.69
2023-01-02T06:24:06.312Z,100756.59
2023-01-02T06:29:08.962Z,100757.22
2023-01-02T06:34:10.561Z,100761.88
2023-01-02T06:39:12.089Z,100767.72
2023-01-02T06:44:13.749Z,100758.63
2023-01-02T06:49:15.289Z,100760.75
2023-01-02T06:54:16.833Z,100758.78
2023-01-02T06:59:18.332Z,100764.06
2023-01-02T07:04:19.893Z,100755.59
2023-01-02T07:09:22.540Z,100765.34
2023-01-02T07:14:25.007Z,100770.63
2023-01-02T07:19:26.500Z,100772.81
2023-01-02T07:24:27.996Z,100783.66
2023-01-02T07:29:29.615Z,100789.78
2023-01-02T07:34:31.152Z,100799.31
2023-01-02T07:39:32.757Z,100795.50
2023-01-02T07:44:34.390Z,100801.97
2023-01-02T07:49:36.084Z,100812.16
2023-01-02T07:54:38.021Z,100804.88
2023-01-02T07:59:39.588Z,100803.28
2023-01-02T08:04:41.139Z,100814.44
2023-01-02T08:09:43.065Z,100834.28
2023-01-02T08:14:44.601Z,100850.13
2023-01-02T08:19:46.286Z,100849.53
2023-01-02T08:24:47.869Z,100860.28
2023-01-02T08:29:49.438Z,100885.88
2023-01-02T08:34:51.096Z,100890.22
2023-01-02T08:39:52.710Z,100911.56
2023-01-02T08:44:54.258Z,100927.06
2023-01-02T08:49:55.821Z,100934.50
2023-01-02T08:54:57.401Z,100938.38
2023-01-02T08:59:59.019Z,100959.91
2023-01-02T09:05:00.627Z,100966.81
2023-01-02T09:10:02.259Z,100970.59
2023-01-02T09:15:04.899Z,100975.03
2023-01-02T09:20:06.792Z,100978.28
2023-01-02T09:25:08.723Z,100993.28
2023-01-02T09:30:10.724Z,101010.63
2023-01-02T09:35:12.258Z,101019.50
2023-01-02T09:40:14.167Z,101031.13
2023-01-02T09:45:15.881Z,101030.53
2023-01-02T09:50:27.841Z,101031.00
2023-01-02T09:55:42.407Z,101047.88
2023-01-02T10:00:49.768Z,101060.31
2023-01-02T10:06:15.249Z,101062.53
2023-01-02T10:11:47.836Z,101062.53
2023-01-02T10:16:54.006Z,101068.59
2023-01-02T10:21:57.643Z,101071.34
2023-01-02T10:27:01.647Z,101070.13
2023-01-02T10:32:18.228Z,101073.75
2023-01-02T10:37:20.048Z,101084.41
2023-01-02T10:42:21.828Z,101075.94
2023-01-02T10:47:35.876Z,101081.69
2023-01-02T10:52:46.826Z,101080.25
2023-01-02T10:57:48.941Z,101086.09
2023-01-02T11:02:59.714Z,101081.59
2023-01-02T11:08:11.202Z,101085.13
2023-01-02T11:13:15.856Z,101078.97
2023-01-02T11:18:28.234Z,101094.97
2023-01-02T11:23:42.177Z,101093.78
2023-01-02T11:28:43.852Z,101086.16
2023-01-02T11:33:46.840Z,101092.47
2023-01-02T11:38:55.771Z,101097.66
2023-01-02T11:43:59.262Z,101098.19
2023-01-02T11:49:05.427Z,101094.47
2023-01-02T11:54:13.609Z,101097.41
2023-01-02T11:59:32.319Z,101095.34
2023-01-02T12:04:33.913Z,101097.84
2023-01-02T12:09:49.941Z,101106.47
2023-01-02T12:15:00.718Z,101103.66
2023-01-02T12:20:28.019Z,101110.81
2023-01-02T12:25:34.853Z,101119.13
2023-01-02T12:30:47.043Z,101143.44
2023-01-02T12:36:03.606Z,101151.72
2023-01-02T12:41:14.230Z,101153.53
2023-01-02T12:46:34.612Z,101158.44
2023-01-02T12:52:17.791Z,101156.91
2023-01-02T12:57:31.351Z,101165.59
2023-01-02T13:03:10.501Z,101170.22
2023-01-02T13:08:28.862Z,101186.91
2023-01-02T13:13:34.911Z,101184.47
2023-01-02T13:19:01.275Z,101185.53
2023-01-02T13:24:03.877Z,101184.41
2023-01-02T13:29:08.313Z,101171.19
2023-01-02T13:34:16.308Z,101186.88
2023-01-02T13:39:29.497Z,101199.19
2023-01-02T13:44:34.931Z,101199.19
2023-01-02T13:49:36.659Z,101190.78
2023-01-02T13:54:38.430Z,101196.03
2023-01-02T14:00:11.000Z,101192.06
2023-01-02T14:05:51.303Z,101204.53
2023-01-02T14:11:01.900Z,101212.22
2023-01-02T14:16:28.854Z,101219.66
2023-01-02T14:21:36.812Z,101231.97
2023-01-02T14:26:41.636Z,101237.28
2023-01-02T14:31:44.036Z,101252.06
2023-01-02T14:36:49.422Z,101248.59
2023-01-02T14:41:50.939Z,101261.63
2023-01-02T14:46:52.871Z,101259.81
2023-01-02T14:52:05.352Z,101256.94
2023-01-02T14:57:32.745Z,101265.28
2023-01-02T15:02:39.694Z,101272.00
2023-01-02T15:07:46.673Z,101283.34
2023-01-02T15:12:58.442Z,101294.53
2023-01-02T15:18:25.629Z,101296.78
2023-01-02T15:23:27.411Z,101307.22
2023-01-02T15:28:32.140Z,101315.97
2023-01-02T15:33:34.306Z,101339.81
2023-01-02T15:38:35.990Z,101350.41
2023-01-02T15:43:39.323Z,101359.94
2023-01-02T15:48:43.014Z,101366.81
2023-01-02T15:54:01.517Z,101369.19
2023-01-02T15:59:29.801Z,101376.25
2023-01-02T16:04:33.526Z,101379.03
2023-01-02T16:09:35.277Z,101384.94
2023-01-02T16:14:44.270Z,101400.38
2023-01-02T16:19:59.216Z,101401.34
2023-01-02T16:25:06.052Z,101408.91
2023-01-02T16:30:25.803Z,101437.69
2023-01-02T16:35:30.701Z,101443.75
2023-01-02T16:41:00.554Z,101455.28
2023-01-02T16:46:10.782Z,101473.66
2023-01-02T16:51:13.984Z,101471.84
2023-01-02T16:56:16.096Z,101482.19
2023-01-02T17:01:18.685Z,101491.22
2023-01-02T17:06:20.500Z,101492.50
2023-01-02T17:11:24.508Z,101506.28
2023-01-02T17:16:26.072Z,101520.88
2023-01-02T17:21:32.495Z,101522.19
2023-01-02T17:26:34.743Z,101519.09
2023-01-02T17:31:37.206Z,101533.69
2023-01-02T17:36:38.748Z,101538.41
2023-01-02T17:41:43.313Z,101563.50
2023-01-02T17:47:15.578Z,101567.78
2023-01-02T17:52:08.716Z,101575.66
2023-01-02T17:57:10.709Z,101582.53
2023-01-02T18:02:18.177Z,101590.06
2023-01-02T18:07:19.766Z,101585.31
2023-01-02T18:12:21.572Z,101589.38
2023-01-02T18:17:30.080Z,101610.22
2023-01-02T18:22:32.064Z,101617.63
2023-01-02T18:27:33.644Z,101615.63
2023-01-02T18:32:37.855Z,101627.94
2023-01-02T18:37:41.216Z,101638.25
2023-01-02T18:42:44.848Z,101638.97
2023-01-02T18:47:49.248Z,101647.50
2023-01-02T18:52:51.685Z,101656.63
2023-01-02T18:58:01.154Z,101665.81
2023-01-02T19:03:08.831Z,101686.22
2023-01-02T19:08:13.308Z,101693.19
2023-01-02T19:13:19.710Z,101692.19
2023-01-02T19:18:38.878Z,101702.66
2023-01-02T19:24:22.320Z,101705.56
2023-01-02T19:29:31.036Z,101709.78
2023-01-02T19:34:43.375Z,101720.72
2023-01-02T19:39:55.685Z,101734.19
2023-01-02T19:45:03.603Z,101745.66
2023-01-02T19:50:08.818Z,101748.66
2023-01-02T19:55:11.570Z,101749.88
2023-01-02T20:00:15.278Z,101754.72
2023-01-02T20:05:22.550Z,101756.84
2023-01-02T20:10:25.492Z,101763.81
2023-01-02T20:15:28.339Z,101763.09
2023-01-02T20:20:30.072Z,101768.97
2023-01-02T20:25:31.616Z,101767.41
2023-01-02T20:30:33.284Z,101774.19
2023-01-02T20:35:34.807Z,101792.44
2023-01-02T20:40:36.374Z,101805.09
2023-01-02T20:45:38.013Z,101813.69
2023-01-02T20:50:39.773Z,101822.16
2023-01-02T20:55:41.548Z,101829.09
2023-01-02T21:00:43.174Z,101836.88
2023-01-02T21:05:44.749Z,101841.03
2023-01-02T21:10:46.293Z,101848.50
2023-01-02T21:15:49.397Z,101850.59
2023-01-02T21:20:54.654Z,101862.25
2023-01-02T21:25:56.787Z,101864.78
2023-01-02T21:30:58.522Z,101864.63
2023-01-02T21:36:01.852Z,101875.38
2023-01-02T21:41:03.636Z,101888.47
2023-01-02T21:46:05.443Z,101886.72
2023-01-02T21:51:07.356Z,101902.19
2023-01-02T21:56:09.059Z,101896.81
2023-01-02T22:01:10.722Z,101906.84
2023-01-02T22:06:12.344Z,101910.31
2023-01-02T22:11:14.024Z,101911.00
2023-01-02T22:16:15.741Z,101910.00
2023-01-02T22:21:17.390Z,101922.75
2023-01-02T22:26:19.199Z,101921.66
2023-01-02T22:31:20.865Z,101913.19
2023-01-02T22:36:23.166Z,101914.50
2023-01-02T22:41:25.580Z,101930.28
2023-01-02T22:46:36.141Z,101939.44
2023-01-02T22:52:06.030Z,101958.72
2023-01-02T22:56:59.370Z,101956.19
2023-01-02T23:02:01.100Z,101958.94
2023-01-02T23:07:23.360Z,101959.88
2023-01-02T23:12:24.171Z,101961.41
2023-01-02T23:17:25.726Z,101962.53
2023-01-02T23:22:27.293Z,101963.03
2023-01-02T23:27:28.839Z,101963.56
2023-01-02T23:32:30.506Z,101978.94
2023-01-02T23:37:32.168Z,101983.66
2023-01-02T23:42:33.733Z,101987.88
2023-01-02T23:47:35.343Z,102003.41
2023-01-02T23:52:37.089Z,102003.69
2023-01-02T23:57:38.679Z,102002.72
